createdAt,value
2019-05-21T00:02:21.771Z,90.75
2019-05-21T00:04:53.271Z,90.98
2019-05-21T00:07:24.514Z,90.99
2019-05-21T00:09:57.887Z,90.82
2019-05-21T00:12:29.037Z,90.88
2019-05-21T00:15:00.231Z,91.10
2019-05-21T00:17:31.460Z,91.49
2019-05-21T00:20:02.701Z,91.39
2019-05-21T00:22:34.060Z,91.62
2019-05-21T00:25:05.864Z,91.68
2019-05-21T00:27:37.186Z,91.86
2019-05-21T00:31:01.840Z,91.64
2019-05-21T00:34:26.764Z,91.52
2019-05-21T00:37:51.534Z,91.34
2019-05-21T00:41:16.759Z,91.66
2019-05-21T00:43:57.729Z,91.65
2019-05-21T00:46:28.970Z,91.89
2019-05-21T00:49:00.265Z,92.11
2019-05-21T00:51:31.499Z,92.01
2019-05-21T00:54:02.763Z,92.04
2019-05-21T00:56:33.887Z,91.77
2019-05-21T00:59:05.200Z,91.76
2019-05-21T01:01:36.439Z,91.75
2019-05-21T01:04:07.780Z,91.95
2019-05-21T01:06:38.955Z,91.96
2019-05-21T01:09:10.435Z,92.10
2019-05-21T01:11:41.661Z,91.87
2019-05-21T01:14:12.907Z,91.82
2019-05-21T01:16:44.217Z,92.03
2019-05-21T01:19:18.318Z,91.91
2019-05-21T01:21:49.628Z,92.06
2019-05-21T01:24:20.866Z,91.75
2019-05-21T01:26:52.168Z,91.67
2019-05-21T01:29:23.492Z,91.37
2019-05-21T01:31:54.740Z,91.63
2019-05-21T01:34:25.952Z,91.71
2019-05-21T01:36:57.134Z,91.63
2019-05-21T01:39:28.404Z,91.70
2019-05-21T01:41:59.704Z,91.91
2019-05-21T01:44:31.066Z,92.11
2019-05-21T01:47:02.214Z,92.13
2019-05-21T01:49:33.444Z,92.34
2019-05-21T01:52:04.798Z,91.90
2019-05-21T01:54:36.060Z,91.68
2019-05-21T01:57:07.337Z,91.83
2019-05-21T01:59:38.590Z,91.94
2019-05-21T02:02:09.835Z,91.79
2019-05-21T02:04:43.411Z,91.72
2019-05-21T02:07:14.565Z,91.84
2019-05-21T02:10:13.543Z,91.84
2019-05-21T02:12:44.786Z,91.73
2019-05-21T02:15:16.296Z,91.64
2019-05-21T02:17:47.456Z,91.84
2019-05-21T02:20:18.875Z,92.12
2019-05-21T02:22:50.126Z,92.33
2019-05-21T02:25:21.558Z,92.36
2019-05-21T02:27:52.830Z,92.28
2019-05-21T02:30:24.714Z,92.05
2019-05-21T02:32:55.955Z,92.01
2019-05-21T02:35:27.193Z,92.07
2019-05-21T02:37:58.466Z,91.85
2019-05-21T02:40:29.736Z,92.11
2019-05-21T02:43:01.022Z,92.45
2019-05-21T02:45:32.257Z,92.63
2019-05-21T02:48:03.548Z,92.53
2019-05-21T02:50:34.817Z,92.20
2019-05-21T02:53:06.136Z,92.01
2019-05-21T02:55:37.368Z,92.31
2019-05-21T02:58:08.614Z,92.15
2019-05-21T03:00:46.834Z,92.36
2019-05-21T03:03:19.284Z,92.46
2019-05-21T03:05:50.557Z,92.42
2019-05-21T03:08:21.823Z,92.51
2019-05-21T03:10:53.417Z,92.89
2019-05-21T03:13:24.705Z,92.76
2019-05-21T03:15:55.918Z,92.57
2019-05-21T03:18:27.169Z,92.87
2019-05-21T03:20:58.304Z,93.02
2019-05-21T03:23:29.499Z,93.41
2019-05-21T03:26:00.856Z,93.24
2019-05-21T03:28:31.998Z,92.83
2019-05-21T03:31:03.233Z,92.63
2019-05-21T03:33:34.531Z,92.76
2019-05-21T03:36:06.010Z,92.39
2019-05-21T03:38:37.265Z,92.62
2019-05-21T03:41:08.544Z,92.86
2019-05-21T03:43:39.778Z,92.74
2019-05-21T03:46:11.072Z,92.58
2019-05-21T03:48:42.352Z,92.43
2019-05-21T03:51:13.612Z,92.55
2019-05-21T03:53:44.771Z,92.38
2019-05-21T03:56:15.993Z,92.11
2019-05-21T03:58:47.236Z,92.01
2019-05-21T04:01:18.488Z,92.00
2019-05-21T04:03:49.773Z,91.82
2019-05-21T04:06:21.029Z,91.56
2019-05-21T04:08:52.335Z,91.41
2019-05-21T04:11:23.615Z,91.41
2019-05-21T04:13:54.893Z,91.30
2019-05-21T04:16:50.972Z,91.58
2019-05-21T04:19:25.920Z,91.49
2019-05-21T04:21:57.354Z,91.47
2019-05-21T04:24:28.616Z,91.59
2019-05-21T04:26:59.914Z,91.42
2019-05-21T04:29:31.168Z,91.30
2019-05-21T04:32:02.486Z,91.34
2019-05-21T04:34:33.725Z,91.08
2019-05-21T04:37:10.822Z,90.94
2019-05-21T04:39:38.027Z,90.96
2019-05-21T04:42:10.074Z,90.89
2019-05-21T04:44:41.342Z,90.80
2019-05-21T04:47:12.638Z,91.04
2019-05-21T04:49:43.911Z,91.13
2019-05-21T04:52:15.151Z,90.47
2019-05-21T04:54:46.438Z,90.51
2019-05-21T04:57:17.585Z,89.90
2019-05-21T04:59:48.786Z,89.73
2019-05-21T05:02:20.068Z,89.44
2019-05-21T05:04:51.322Z,89.31
2019-05-21T05:07:28.358Z,88.96
2019-05-21T05:09:55.463Z,89.04
2019-05-21T05:12:26.728Z,88.87
2019-05-21T05:15:00.547Z,88.78
2019-05-21T05:17:31.806Z,88.59
2019-05-21T05:20:03.110Z,88.57
2019-05-21T05:22:34.379Z,88.82
2019-05-21T05:25:06.537Z,88.54
2019-05-21T05:27:37.756Z,88.57
2019-05-21T05:30:11.492Z,88.49
2019-05-21T05:32:42.684Z,88.74
2019-05-21T05:35:14.669Z,88.46
2019-05-21T05:37:48.787Z,88.31
2019-05-21T05:40:19.409Z,88.41
2019-05-21T05:42:50.668Z,88.23
2019-05-21T05:45:22.286Z,88.18
2019-05-21T05:47:53.560Z,88.23
2019-05-21T05:50:27.557Z,87.92
2019-05-21T05:52:58.849Z,87.71
2019-05-21T05:55:30.132Z,87.39
2019-05-21T05:58:01.421Z,86.95
2019-05-21T06:00:32.735Z,86.86
2019-05-21T06:03:04.086Z,86.68
2019-05-21T06:05:35.230Z,86.89
2019-05-21T06:08:06.500Z,87.05
2019-05-21T06:10:40.066Z,86.98
2019-05-21T06:13:10.703Z,86.94
2019-05-21T06:15:41.921Z,87.06
2019-05-21T06:18:13.196Z,86.41
2019-05-21T06:20:44.494Z,86.39
2019-05-21T06:23:15.794Z,87.07
2019-05-21T06:25:47.064Z,86.89
2019-05-21T06:28:18.189Z,87.42
2019-05-21T06:30:52.669Z,87.60
2019-05-21T06:33:23.909Z,87.28
2019-05-21T06:35:55.205Z,87.22
2019-05-21T06:38:26.342Z,87.81
2019-05-21T06:40:57.624Z,87.51
2019-05-21T06:43:28.927Z,87.22
2019-05-21T06:46:00.202Z,86.76
2019-05-21T06:48:31.519Z,86.89
2019-05-21T06:51:02.769Z,87.35
2019-05-21T06:53:34.053Z,86.65
2019-05-21T06:56:07.645Z,86.68
2019-05-21T06:58:38.370Z,86.14
2019-05-21T07:01:09.608Z,85.53
2019-05-21T07:03:40.961Z,86.03
2019-05-21T07:06:12.346Z,85.78
2019-05-21T07:08:43.597Z,86.12
2019-05-21T07:11:14.853Z,85.78
2019-05-21T07:13:46.145Z,85.77
2019-05-21T07:16:17.381Z,86.11
2019-05-21T07:18:48.609Z,85.78
2019-05-21T07:21:19.925Z,85.36
2019-05-21T07:23:51.167Z,85.22
2019-05-21T07:26:22.389Z,85.45
2019-05-21T07:28:57.125Z,84.99
2019-05-21T07:31:28.716Z,85.24
2019-05-21T07:34:00.016Z,85.35
2019-05-21T07:36:32.736Z,84.92
2019-05-21T07:39:05.008Z,84.63
2019-05-21T07:41:36.227Z,84.38
2019-05-21T07:44:07.577Z,84.63
2019-05-21T07:46:39.794Z,84.60
2019-05-21T07:49:11.330Z,85.10
2019-05-21T07:51:42.586Z,85.02
2019-05-21T07:54:15.181Z,85.25
2019-05-21T07:56:46.463Z,84.36
2019-05-21T07:59:17.828Z,84.35
2019-05-21T08:01:49.171Z,84.57
2019-05-21T08:04:23.490Z,84.69
2019-05-21T08:06:54.959Z,84.49
2019-05-21T08:09:26.156Z,85.23
2019-05-21T08:11:57.554Z,85.91
2019-05-21T08:14:28.858Z,85.90
2019-05-21T08:17:00.229Z,86.38
2019-05-21T08:19:39.377Z,85.80
2019-05-21T08:22:10.706Z,85.35
2019-05-21T08:24:42.010Z,86.19
2019-05-21T08:27:20.592Z,86.01
2019-05-21T08:29:51.913Z,86.19
2019-05-21T08:32:23.186Z,86.30
2019-05-21T08:34:54.458Z,86.84
2019-05-21T08:37:28.864Z,86.82
2019-05-21T08:40:00.230Z,87.35
2019-05-21T08:42:31.565Z,87.97
2019-05-21T08:45:04.299Z,89.34
2019-05-21T08:47:35.758Z,90.02
2019-05-21T08:50:07.950Z,88.35
2019-05-21T08:52:39.248Z,88.96
2019-05-21T08:55:11.257Z,89.07
2019-05-21T08:57:42.821Z,89.66
2019-05-21T09:00:17.359Z,89.44
2019-05-21T09:02:48.522Z,89.50
2019-05-21T09:05:20.179Z,90.48
2019-05-21T09:07:53.676Z,90.17
2019-05-21T09:10:24.583Z,90.48
2019-05-21T09:12:59.110Z,90.32
2019-05-21T09:15:30.382Z,90.93
2019-05-21T09:18:01.661Z,91.19
2019-05-21T09:20:33.033Z,90.62
2019-05-21T09:23:04.299Z,91.19
2019-05-21T09:25:38.101Z,91.05
2019-05-21T09:28:09.338Z,91.00
2019-05-21T09:30:40.558Z,90.78
2019-05-21T09:33:11.777Z,90.92
2019-05-21T09:35:43.086Z,90.75
2019-05-21T09:38:14.372Z,90.66
2019-05-21T09:40:48.846Z,90.26
2019-05-21T09:43:20.102Z,90.58
2019-05-21T09:45:55.377Z,90.95
2019-05-21T09:48:26.589Z,90.44
2019-05-21T09:50:57.845Z,90.56
2019-05-21T09:53:29.153Z,90.97
2019-05-21T09:56:10.739Z,90.75
2019-05-21T09:58:45.809Z,91.33
2019-05-21T10:01:34.083Z,91.72
2019-05-21T10:04:05.606Z,91.56
2019-05-21T10:06:36.914Z,91.25
2019-05-21T10:09:16.601Z,91.64
2019-05-21T10:11:47.969Z,91.24
2019-05-21T10:14:19.368Z,91.38
2019-05-21T10:16:50.679Z,91.18
2019-05-21T10:19:23.431Z,91.20
2019-05-21T10:21:56.935Z,91.42
2019-05-21T10:24:27.571Z,91.51
2019-05-21T10:27:03.414Z,90.69
2019-05-21T10:29:33.409Z,91.59
2019-05-21T10:32:07.731Z,91.38
2019-05-21T10:34:39.167Z,91.22
2019-05-21T10:37:13.250Z,91.14
2019-05-21T10:39:44.583Z,90.76
2019-05-21T10:42:15.881Z,90.89
2019-05-21T10:44:47.138Z,90.97
2019-05-21T10:47:18.546Z,91.41
2019-05-21T10:49:49.813Z,91.68
2019-05-21T10:52:21.096Z,91.91
2019-05-21T10:54:52.345Z,91.62
2019-05-21T10:57:23.623Z,91.47
2019-05-21T10:59:54.941Z,91.44
2019-05-21T11:02:35.689Z,91.64
2019-05-21T11:05:14.698Z,91.78
2019-05-21T11:07:46.067Z,91.51
2019-05-21T11:10:17.448Z,91.01
2019-05-21T11:12:48.851Z,91.22
2019-05-21T11:15:20.626Z,91.28
2019-05-21T11:18:09.159Z,91.45
2019-05-21T11:20:24.949Z,92.07
2019-05-21T11:22:58.284Z,91.81
2019-05-21T11:25:29.080Z,91.34
2019-05-21T11:28:00.380Z,91.92
2019-05-21T11:30:31.624Z,91.88
2019-05-21T11:33:03.016Z,91.38
2019-05-21T11:35:36.211Z,91.60
2019-05-21T11:38:07.578Z,91.73
2019-05-21T11:40:38.824Z,91.56
2019-05-21T11:43:10.082Z,92.03
2019-05-21T11:45:41.467Z,91.92
2019-05-21T11:48:18.072Z,91.68
2019-05-21T11:51:16.086Z,91.88
2019-05-21T11:54:18.165Z,91.60
2019-05-21T11:57:12.266Z,91.54
2019-05-21T12:00:03.018Z,90.73
2019-05-21T12:02:54.775Z,91.17
2019-05-21T12:05:42.187Z,91.44
2019-05-21T12:08:25.229Z,91.05
2019-05-21T12:11:10.093Z,91.12
2019-05-21T12:14:00.596Z,90.35
2019-05-21T12:16:40.648Z,90.46
2019-05-21T12:19:15.687Z,90.48
2019-05-21T12:21:57.736Z,90.18
2019-05-21T12:24:45.507Z,89.51
2019-05-21T12:27:37.706Z,89.72
2019-05-21T12:30:27.542Z,89.27
2019-05-21T12:33:06.927Z,89.70
2019-05-21T12:35:44.027Z,89.25
2019-05-21T12:38:34.528Z,89.61
2019-05-21T12:41:09.036Z,90.10
2019-05-21T12:43:49.238Z,89.78
2019-05-21T12:46:35.821Z,89.79
2019-05-21T12:49:35.482Z,90.43
2019-05-21T12:52:19.424Z,90.17
2019-05-21T12:55:04.862Z,90.27
2019-05-21T12:57:42.105Z,89.11
2019-05-21T13:00:22.440Z,89.67
2019-05-21T13:02:58.951Z,89.70
2019-05-21T13:05:34.708Z,89.90
2019-05-21T13:08:11.105Z,90.20
2019-05-21T13:10:47.634Z,90.00
2019-05-21T13:13:20.852Z,89.40
2019-05-21T13:16:02.625Z,89.16
2019-05-21T13:19:00.628Z,89.16
2019-05-21T13:21:34.340Z,90.38
2019-05-21T13:24:13.349Z,89.60
2019-05-21T13:26:57.346Z,89.36
2019-05-21T13:29:28.854Z,88.96
2019-05-21T13:32:00.120Z,88.55
2019-05-21T13:34:31.406Z,89.07
2019-05-21T13:37:02.718Z,89.50
2019-05-21T13:39:48.854Z,88.68
2019-05-21T13:42:07.075Z,89.27
2019-05-21T13:44:38.349Z,88.94
2019-05-21T13:47:09.639Z,88.42
2019-05-21T13:49:40.947Z,89.02
2019-05-21T13:52:12.250Z,88.93
2019-05-21T13:54:43.607Z,88.98
2019-05-21T13:57:17.008Z,88.23
2019-05-21T13:59:48.245Z,89.09
2019-05-21T14:02:23.891Z,89.30
2019-05-21T14:04:55.287Z,89.47
2019-05-21T14:07:26.913Z,90.33
2019-05-21T14:10:13.209Z,90.12
2019-05-21T14:12:31.253Z,89.83
2019-05-21T14:15:02.519Z,89.56
2019-05-21T14:17:33.806Z,89.96
2019-05-21T14:20:05.640Z,89.84
2019-05-21T14:22:36.864Z,90.52
2019-05-21T14:25:08.657Z,90.32
2019-05-21T14:27:44.784Z,89.78
2019-05-21T14:30:13.329Z,89.75
2019-05-21T14:32:44.608Z,89.79
2019-05-21T14:35:16.124Z,90.17
2019-05-21T14:37:47.408Z,90.41
2019-05-21T14:40:31.542Z,90.24
2019-05-21T14:42:59.827Z,90.52
2019-05-21T14:45:32.902Z,90.32
2019-05-21T14:48:00.584Z,89.76
2019-05-21T14:50:31.911Z,90.17
2019-05-21T14:53:03.179Z,89.91
2019-05-21T14:55:34.497Z,89.98
2019-05-21T14:58:09.295Z,89.97
2019-05-21T15:00:41.053Z,90.12
2019-05-21T15:03:24.250Z,89.47
2019-05-21T15:05:45.183Z,89.39
2019-05-21T15:08:16.297Z,89.38
2019-05-21T15:10:49.297Z,90.07
2019-05-21T15:13:20.508Z,90.22
2019-05-21T15:15:51.747Z,90.49
2019-05-21T15:18:25.273Z,90.37
2019-05-21T15:21:01.235Z,89.68
2019-05-21T15:23:32.519Z,90.53
2019-05-21T15:26:03.882Z,89.64
2019-05-21T15:28:35.259Z,89.26
2019-05-21T15:31:06.557Z,89.32
2019-05-21T15:33:37.764Z,89.30
2019-05-21T15:36:08.997Z,89.26
2019-05-21T15:38:50.113Z,88.86
2019-05-21T15:41:15.264Z,89.46
2019-05-21T15:43:46.650Z,89.42
2019-05-21T15:46:19.892Z,88.07
2019-05-21T15:48:51.192Z,88.99
2019-05-21T15:51:22.408Z,89.75
2019-05-21T15:53:53.735Z,89.55
2019-05-21T15:56:25.022Z,89.92
2019-05-21T15:58:56.345Z,89.00
2019-05-21T16:01:27.602Z,89.39
2019-05-21T16:03:58.968Z,90.14
2019-05-21T16:06:30.289Z,89.59
2019-05-21T16:09:01.617Z,89.99
2019-05-21T16:11:32.952Z,90.15
2019-05-21T16:14:04.416Z,90.17
2019-05-21T16:16:35.748Z,90.24
2019-05-21T16:19:07.236Z,89.83
2019-05-21T16:21:38.708Z,89.82
2019-05-21T16:24:09.950Z,89.89
2019-05-21T16:26:41.596Z,90.04
2019-05-21T16:29:12.881Z,89.84
2019-05-21T16:31:53.357Z,89.92
2019-05-21T16:34:24.618Z,90.35
2019-05-21T16:36:55.984Z,89.87
2019-05-21T16:39:27.407Z,90.05
2019-05-21T16:41:58.733Z,90.43
2019-05-21T16:44:30.111Z,90.18
2019-05-21T16:47:01.298Z,90.36
2019-05-21T16:49:37.108Z,90.44
2019-05-21T16:52:08.403Z,90.18
2019-05-21T16:54:42.379Z,90.06
2019-05-21T16:57:13.571Z,90.25
2019-05-21T16:59:44.833Z,90.42
2019-05-21T17:02:17.216Z,90.49
2019-05-21T17:04:48.561Z,90.25
2019-05-21T17:07:19.745Z,90.99
2019-05-21T17:09:51.038Z,91.03
2019-05-21T17:12:22.330Z,91.26
2019-05-21T17:14:53.585Z,91.30
2019-05-21T17:17:24.823Z,90.60
2019-05-21T17:19:56.172Z,90.74
2019-05-21T17:22:27.497Z,90.64
2019-05-21T17:24:59.115Z,90.61
2019-05-21T17:27:31.058Z,90.67
2019-05-21T17:30:02.339Z,90.79
2019-05-21T17:32:33.830Z,90.88
2019-05-21T17:35:08.442Z,91.12
2019-05-21T17:37:39.678Z,91.31
2019-05-21T17:40:12.052Z,91.28
2019-05-21T17:42:43.401Z,90.50
2019-05-21T17:45:15.027Z,91.05
2019-05-21T17:47:46.436Z,90.38
2019-05-21T17:50:18.349Z,90.60
2019-05-21T17:52:49.596Z,90.92
2019-05-21T17:55:20.943Z,90.86
2019-05-21T17:57:52.638Z,90.72
2019-05-21T18:00:34.210Z,91.29
2019-05-21T18:03:05.439Z,90.99
2019-05-21T18:05:37.175Z,90.97
2019-05-21T18:08:08.696Z,91.31
2019-05-21T18:10:39.987Z,91.75
2019-05-21T18:13:12.702Z,91.79
2019-05-21T18:15:44.256Z,91.16
2019-05-21T18:18:15.844Z,91.35
2019-05-21T18:20:47.612Z,90.96
2019-05-21T18:23:30.402Z,90.78
2019-05-21T18:26:04.958Z,91.16
2019-05-21T18:28:38.344Z,91.00
2019-05-21T18:31:11.509Z,90.79
2019-05-21T18:33:43.205Z,90.57
2019-05-21T18:36:14.467Z,90.61
2019-05-21T18:38:46.048Z,90.18
2019-05-21T18:41:17.601Z,90.28
2019-05-21T18:43:50.218Z,90.74
2019-05-21T18:46:21.937Z,90.38
2019-05-21T18:48:53.221Z,90.45
2019-05-21T18:51:24.465Z,90.41
2019-05-21T18:53:55.676Z,90.87
2019-05-21T18:56:27.068Z,91.04
2019-05-21T18:58:58.336Z,91.20
2019-05-21T19:01:29.648Z,90.46
2019-05-21T19:04:00.978Z,90.41
2019-05-21T19:06:32.294Z,90.70
2019-05-21T19:09:05.290Z,90.88
2019-05-21T19:11:36.661Z,91.31
2019-05-21T19:14:08.393Z,90.66
2019-05-21T19:16:39.683Z,90.99
2019-05-21T19:19:11.033Z,90.63
2019-05-21T19:21:42.297Z,90.73
2019-05-21T19:24:13.628Z,90.97
2019-05-21T19:26:45.041Z,91.35
2019-05-21T19:29:16.460Z,91.51
2019-05-21T19:31:49.348Z,91.55
2019-05-21T19:34:21.025Z,91.65
2019-05-21T19:36:52.326Z,91.55
2019-05-21T19:39:23.658Z,91.68
2019-05-21T19:42:01.319Z,91.79
2019-05-21T19:44:32.611Z,91.84
2019-05-21T19:47:03.950Z,91.84
2019-05-21T19:49:35.191Z,91.46
2019-05-21T19:52:06.515Z,91.47
2019-05-21T19:54:37.884Z,91.18
2019-05-21T19:57:09.463Z,91.18
2019-05-21T19:59:41.467Z,91.30
2019-05-21T20:02:19.235Z,91.31
2019-05-21T20:04:54.139Z,91.63
2019-05-21T20:07:27.230Z,91.68
2019-05-21T20:09:59.613Z,91.19
2019-05-21T20:12:31.708Z,91.33
2019-05-21T20:15:03.195Z,91.52
2019-05-21T20:17:36.011Z,91.86
2019-05-21T20:20:09.313Z,91.80
2019-05-21T20:22:42.859Z,91.20
2019-05-21T20:25:59.180Z,91.04
2019-05-21T20:28:31.283Z,91.34
2019-05-21T20:31:05.531Z,91.52
2019-05-21T20:33:37.115Z,91.90
2019-05-21T20:36:45.816Z,92.30
2019-05-21T20:39:27.023Z,92.34
2019-05-21T20:41:58.857Z,92.25
2019-05-21T20:44:33.096Z,92.03
2019-05-21T20:47:06.284Z,92.03
2019-05-21T20:49:37.782Z,91.98
2019-05-21T20:52:18.930Z,92.32
2019-05-21T20:54:53.873Z,92.60
2019-05-21T20:57:29.682Z,92.83
2019-05-21T21:00:00.944Z,92.47
2019-05-21T21:02:33.717Z,92.16
2019-05-21T21:05:06.213Z,92.07
2019-05-21T21:07:40.856Z,91.96
2019-05-21T21:10:22.967Z,91.94
2019-05-21T21:13:01.834Z,92.12
2019-05-21T21:15:35.813Z,91.75
2019-05-21T21:18:09.689Z,91.86
2019-05-21T21:20:41.394Z,92.45
2019-05-21T21:23:15.294Z,92.54
2019-05-21T21:25:47.184Z,92.14
2019-05-21T21:28:18.817Z,91.91
2019-05-21T21:30:50.254Z,92.04
2019-05-21T21:33:21.911Z,91.86
2019-05-21T21:35:54.009Z,91.46
2019-05-21T21:38:29.175Z,91.37
2019-05-21T21:41:00.666Z,91.48
2019-05-21T21:43:48.200Z,91.56
2019-05-21T21:46:21.443Z,91.67
2019-05-21T21:48:52.991Z,91.37
2019-05-21T21:51:27.894Z,91.47
2019-05-21T21:53:59.345Z,91.32
2019-05-21T21:56:30.594Z,91.62
2019-05-21T21:59:02.634Z,91.79
2019-05-21T22:01:51.111Z,91.99
2019-05-21T22:04:29.711Z,92.40
2019-05-21T22:07:01.278Z,91.95
2019-05-21T22:09:38.072Z,92.07
2019-05-21T22:12:17.034Z,92.36
2019-05-21T22:14:58.005Z,92.06
2019-05-21T22:17:29.570Z,92.51
2019-05-21T22:20:01.204Z,91.97
2019-05-21T22:22:32.686Z,92.21
2019-05-21T22:25:04.876Z,92.36
2019-05-21T22:27:36.288Z,92.55
2019-05-21T22:30:09.895Z,92.55
2019-05-21T22:32:41.569Z,92.28
2019-05-21T22:35:13.525Z,92.08
2019-05-21T22:37:44.817Z,91.91
2019-05-21T22:40:17.704Z,92.21
2019-05-21T22:42:49.152Z,92.29
2019-05-21T22:45:20.452Z,92.23
2019-05-21T22:47:51.982Z,92.62
2019-05-21T22:50:23.208Z,92.93
2019-05-21T22:52:54.498Z,93.39
2019-05-21T22:55:25.878Z,93.54
2019-05-21T22:57:57.691Z,93.14
2019-05-21T23:00:30.094Z,93.30
2019-05-21T23:03:02.834Z,93.19
2019-05-21T23:05:34.097Z,93.04
2019-05-21T23:08:06.009Z,93.08
2019-05-21T23:10:37.539Z,93.09
2019-05-21T23:13:08.942Z,92.95
2019-05-21T23:15:40.336Z,93.19
2019-05-21T23:18:11.631Z,93.41
2019-05-21T23:20:43.744Z,93.60
2019-05-21T23:23:15.893Z,93.36
2019-05-21T23:25:47.646Z,93.46
2019-05-21T23:28:19.239Z,93.35
2019-05-21T23:30:51.890Z,93.49
2019-05-21T23:33:23.999Z,93.63
2019-05-21T23:35:55.272Z,93.50
2019-05-21T23:38:27.917Z,93.18
2019-05-21T23:40:59.868Z,93.32
2019-05-21T23:43:31.916Z,93.54
2019-05-21T23:46:04.757Z,93.65
2019-05-21T23:48:37.346Z,93.88
2019-05-21T23:51:08.728Z,93.75
2019-05-21T23:53:40.443Z,93.56
2019-05-21T23:56:11.704Z,93.57
2019-05-21T23:58:43.008Z,93.48
